createdAt,value
2018-05-07T00:00:35.433Z,3.10
2018-05-07T00:03:03.689Z,3.50
2018-05-07T00:05:31.284Z,3.63
2018-05-07T00:07:58.802Z,3.60
2018-05-07T00:10:26.428Z,3.20
2018-05-07T00:12:53.941Z,3.10
2018-05-07T00:15:22.226Z,3.10
2018-05-07T00:17:49.748Z,3.40
2018-05-07T00:20:18.007Z,3.50
2018-05-07T00:22:45.621Z,3.27
2018-05-07T00:25:13.097Z,2.57
2018-05-07T00:27:40.666Z,3.47
2018-05-07T00:30:08.216Z,3.07
2018-05-07T00:32:35.777Z,3.33
2018-05-07T00:35:03.319Z,3.43
2018-05-07T00:37:30.783Z,2.97
2018-05-07T00:39:58.316Z,3.07
2018-05-07T00:42:26.617Z,3.40
2018-05-07T00:44:54.241Z,2.87
2018-05-07T00:47:21.836Z,3.83
2018-05-07T00:49:49.412Z,3.00
2018-05-07T00:52:16.939Z,3.03
2018-05-07T00:54:57.233Z,3.40
2018-05-07T00:57:24.720Z,3.50
2018-05-07T00:59:52.304Z,3.20
2018-05-07T01:02:20.547Z,3.07
2018-05-07T01:04:48.116Z,3.00
2018-05-07T01:07:15.625Z,3.13
2018-05-07T01:09:43.104Z,3.43
2018-05-07T01:12:10.711Z,3.50
2018-05-07T01:14:38.301Z,3.47
2018-05-07T01:17:05.796Z,3.27
2018-05-07T01:19:33.369Z,3.63
2018-05-07T01:22:00.949Z,3.23
2018-05-07T01:24:29.259Z,4.13
2018-05-07T01:26:56.792Z,3.67
2018-05-07T01:29:25.106Z,3.83
2018-05-07T01:31:52.645Z,3.93
2018-05-07T01:34:20.157Z,4.00
2018-05-07T01:36:47.697Z,3.67
2018-05-07T01:39:15.213Z,4.27
2018-05-07T01:41:43.603Z,4.03
2018-05-07T01:44:11.175Z,3.50
2018-05-07T01:46:38.694Z,3.60
2018-05-07T01:49:06.245Z,4.23
2018-05-07T01:51:34.536Z,3.70
2018-05-07T01:54:02.777Z,4.40
2018-05-07T01:56:30.342Z,3.70
2018-05-07T01:58:57.865Z,3.80
2018-05-07T02:01:25.356Z,4.40
2018-05-07T02:03:52.971Z,4.00
2018-05-07T02:06:20.482Z,5.10
2018-05-07T02:08:48.785Z,4.23
2018-05-07T02:11:17.056Z,4.10
2018-05-07T02:13:45.469Z,4.70
2018-05-07T02:16:12.957Z,4.30
2018-05-07T02:18:40.564Z,4.07
2018-05-07T02:21:08.840Z,3.53
2018-05-07T02:23:37.121Z,4.40
2018-05-07T02:26:04.669Z,4.50
2018-05-07T02:28:32.191Z,4.40
2018-05-07T02:30:59.706Z,4.27
2018-05-07T02:33:27.287Z,4.43
2018-05-07T02:35:54.835Z,4.60
2018-05-07T02:38:22.379Z,4.60
2018-05-07T02:40:49.922Z,4.20
2018-05-07T02:43:18.254Z,4.20
2018-05-07T02:45:45.778Z,4.57
2018-05-07T02:48:13.384Z,5.00
2018-05-07T02:50:41.717Z,4.00
2018-05-07T02:53:09.289Z,4.43
2018-05-07T02:55:36.826Z,4.80
2018-05-07T02:58:04.439Z,4.37
2018-05-07T03:00:31.983Z,4.20
2018-05-07T03:02:59.497Z,3.83
2018-05-07T03:05:27.029Z,4.10
2018-05-07T03:07:54.690Z,4.40
2018-05-07T03:10:22.998Z,4.20
2018-05-07T03:12:51.270Z,5.03
2018-05-07T03:15:19.589Z,4.40
2018-05-07T03:17:47.170Z,5.13
2018-05-07T03:20:14.701Z,4.27
2018-05-07T03:22:42.265Z,4.60
2018-05-07T03:25:09.782Z,4.03
2018-05-07T03:27:38.123Z,5.00
2018-05-07T03:30:05.766Z,4.60
2018-05-07T03:32:33.447Z,5.17
2018-05-07T03:35:01.794Z,4.57
2018-05-07T03:37:29.378Z,4.97
2018-05-07T03:39:56.927Z,4.53
2018-05-07T03:42:24.470Z,4.33
2018-05-07T03:44:52.082Z,5.63
2018-05-07T03:47:19.617Z,4.20
2018-05-07T03:49:47.164Z,4.50
2018-05-07T03:52:14.733Z,4.20
2018-05-07T03:54:42.286Z,4.53
2018-05-07T03:57:09.830Z,4.33
2018-05-07T03:59:37.462Z,5.73
2018-05-07T04:02:05.053Z,5.80
2018-05-07T04:04:32.582Z,5.10
2018-05-07T04:07:00.137Z,4.63
2018-05-07T04:09:27.701Z,5.07
2018-05-07T04:11:55.304Z,5.27
2018-05-07T04:14:22.914Z,5.27
2018-05-07T04:17:03.310Z,5.27
2018-05-07T04:19:42.728Z,5.60
2018-05-07T04:22:21.975Z,5.53
2018-05-07T04:24:49.543Z,5.03
2018-05-07T04:27:17.129Z,5.50
2018-05-07T04:29:44.703Z,5.70
2018-05-07T04:32:12.255Z,6.00
2018-05-07T04:34:39.798Z,5.30
2018-05-07T04:37:07.337Z,6.17
2018-05-07T04:39:34.910Z,5.77
2018-05-07T04:42:02.431Z,5.97
2018-05-07T04:44:30.012Z,6.33
2018-05-07T04:46:57.689Z,5.10
2018-05-07T04:49:25.230Z,5.87
2018-05-07T04:51:52.811Z,5.50
2018-05-07T04:54:20.490Z,5.40
2018-05-07T04:56:48.010Z,6.30
2018-05-07T04:59:15.549Z,6.03
2018-05-07T05:01:43.103Z,5.63
2018-05-07T05:04:10.679Z,6.23
2018-05-07T05:06:38.235Z,6.27
2018-05-07T05:09:05.761Z,6.90
2018-05-07T05:11:34.115Z,6.37
2018-05-07T05:14:01.675Z,6.50
2018-05-07T05:16:29.263Z,6.30
2018-05-07T05:18:57.581Z,5.20
2018-05-07T05:21:25.264Z,6.60
2018-05-07T05:23:53.514Z,5.40
2018-05-07T05:26:21.073Z,5.90
2018-05-07T05:28:48.670Z,6.83
2018-05-07T05:31:16.339Z,5.50
2018-05-07T05:33:43.960Z,6.30
2018-05-07T05:36:11.550Z,5.83
2018-05-07T05:38:39.147Z,5.97
2018-05-07T05:41:07.459Z,5.07
2018-05-07T05:43:35.073Z,5.77
2018-05-07T05:46:02.588Z,5.43
2018-05-07T05:48:30.110Z,5.57
2018-05-07T05:50:57.722Z,5.70
2018-05-07T05:53:25.379Z,5.03
2018-05-07T05:55:53.071Z,5.13
2018-05-07T05:58:21.385Z,5.43
2018-05-07T06:00:48.987Z,5.40
2018-05-07T06:03:16.561Z,4.50
2018-05-07T06:05:44.131Z,4.87
2018-05-07T06:08:12.495Z,4.47
2018-05-07T06:10:40.093Z,3.40
2018-05-07T06:13:07.621Z,4.00
2018-05-07T06:15:35.173Z,3.43
2018-05-07T06:18:02.815Z,2.97
2018-05-07T06:20:30.373Z,3.17
2018-05-07T06:22:57.929Z,2.47
2018-05-07T06:25:25.474Z,3.20
2018-05-07T06:27:52.996Z,3.20
2018-05-07T06:30:20.584Z,4.30
2018-05-07T06:32:48.109Z,3.60
2018-05-07T06:35:16.459Z,4.20
2018-05-07T06:37:43.983Z,3.80
2018-05-07T06:40:11.558Z,3.87
2018-05-07T06:42:39.122Z,4.43
2018-05-07T06:45:06.694Z,5.23
2018-05-07T06:47:34.320Z,4.93
2018-05-07T06:50:02.084Z,4.80
2018-05-07T06:52:31.600Z,5.93
2018-05-07T06:54:59.967Z,5.37
2018-05-07T06:57:27.520Z,5.73
2018-05-07T06:59:55.054Z,5.50
2018-05-07T07:02:23.372Z,5.53
2018-05-07T07:04:50.922Z,4.67
2018-05-07T07:07:18.490Z,4.33
2018-05-07T07:09:46.071Z,4.67
2018-05-07T07:12:13.598Z,4.50
2018-05-07T07:14:41.163Z,4.63
2018-05-07T07:17:08.717Z,4.17
2018-05-07T07:19:36.250Z,3.87
2018-05-07T07:22:03.786Z,4.40
2018-05-07T07:24:31.419Z,4.10
2018-05-07T07:26:58.992Z,4.40
2018-05-07T07:29:26.527Z,3.70
2018-05-07T07:31:54.098Z,4.33
2018-05-07T07:34:21.610Z,4.23
2018-05-07T07:36:49.192Z,3.60
2018-05-07T07:39:16.768Z,4.10
2018-05-07T07:41:44.322Z,4.90
2018-05-07T07:44:11.855Z,3.67
2018-05-07T07:46:39.424Z,4.10
2018-05-07T07:49:07.000Z,3.70
2018-05-07T07:51:34.528Z,3.30
2018-05-07T07:54:02.107Z,3.80
2018-05-07T07:56:29.614Z,3.73
2018-05-07T07:58:57.195Z,3.30
2018-05-07T08:01:24.775Z,4.30
2018-05-07T08:03:52.358Z,4.70
2018-05-07T08:06:19.946Z,3.47
2018-05-07T08:08:47.591Z,3.67
2018-05-07T08:11:15.114Z,3.33
2018-05-07T08:13:42.712Z,3.87
2018-05-07T08:16:10.366Z,3.23
2018-05-07T08:18:38.009Z,3.80
2018-05-07T08:21:05.603Z,2.40
2018-05-07T08:23:33.162Z,2.93
2018-05-07T08:26:00.682Z,3.20
2018-05-07T08:28:28.221Z,2.50
2018-05-07T08:30:55.831Z,2.87
2018-05-07T08:33:23.466Z,2.73
2018-05-07T08:35:51.006Z,2.40
2018-05-07T08:38:18.540Z,2.87
2018-05-07T08:40:46.876Z,2.87
2018-05-07T08:43:14.522Z,2.63
2018-05-07T08:45:42.116Z,2.83
2018-05-07T08:48:09.772Z,3.07
2018-05-07T08:50:37.355Z,3.60
2018-05-07T08:53:04.897Z,2.30
2018-05-07T08:55:32.539Z,2.93
2018-05-07T08:58:00.073Z,2.30
2018-05-07T09:00:27.630Z,3.17
2018-05-07T09:02:55.157Z,2.83
2018-05-07T09:05:23.444Z,2.30
2018-05-07T09:07:51.757Z,1.93
2018-05-07T09:10:19.307Z,2.13
2018-05-07T09:12:46.916Z,1.63
2018-05-07T09:15:14.495Z,1.27
2018-05-07T09:17:42.839Z,1.10
2018-05-07T09:20:10.398Z,1.40
2018-05-07T09:22:38.034Z,1.53
2018-05-07T09:25:05.550Z,1.20
2018-05-07T09:27:33.964Z,1.23
2018-05-07T09:30:01.526Z,1.30
2018-05-07T09:32:29.077Z,1.23
2018-05-07T09:34:56.675Z,0.93
2018-05-07T09:37:24.972Z,1.20
2018-05-07T09:39:52.475Z,1.40
2018-05-07T09:42:20.048Z,0.90
2018-05-07T09:44:47.721Z,1.10
2018-05-07T09:47:15.288Z,0.70
2018-05-07T09:49:42.871Z,0.83
2018-05-07T09:52:11.341Z,0.80
2018-05-07T09:54:38.917Z,1.00
2018-05-07T09:57:07.336Z,1.20
2018-05-07T09:59:34.857Z,1.07
2018-05-07T10:02:03.187Z,0.90
2018-05-07T10:04:30.758Z,0.80
2018-05-07T10:06:58.419Z,0.80
2018-05-07T10:09:25.975Z,1.20
2018-05-07T10:11:53.558Z,0.90
2018-05-07T10:14:21.117Z,0.60
2018-05-07T10:16:48.699Z,0.83
2018-05-07T10:19:17.014Z,1.10
2018-05-07T10:21:44.557Z,0.90
2018-05-07T10:24:12.138Z,1.23
2018-05-07T10:26:39.715Z,1.70
2018-05-07T10:29:07.380Z,1.70
2018-05-07T10:31:34.898Z,1.47
2018-05-07T10:34:02.520Z,1.33
2018-05-07T10:36:30.102Z,1.57
2018-05-07T10:38:57.646Z,1.70
2018-05-07T10:41:25.969Z,2.10
2018-05-07T10:43:53.564Z,1.40
2018-05-07T10:46:21.077Z,1.67
2018-05-07T10:48:48.702Z,1.70
2018-05-07T10:51:17.031Z,1.50
2018-05-07T10:53:44.558Z,1.50
2018-05-07T10:56:12.160Z,1.30
2018-05-07T10:58:40.435Z,1.60
2018-05-07T11:01:07.993Z,1.43
2018-05-07T11:03:35.543Z,1.40
2018-05-07T11:06:03.131Z,1.73
2018-05-07T11:08:30.681Z,1.57
2018-05-07T11:10:58.207Z,1.67
2018-05-07T11:13:25.758Z,1.33
2018-05-07T11:15:53.360Z,1.30
2018-05-07T11:18:20.952Z,1.10
2018-05-07T11:20:49.257Z,1.47
2018-05-07T11:23:16.855Z,1.30
2018-05-07T11:25:44.430Z,1.00
2018-05-07T11:28:11.974Z,1.30
2018-05-07T11:30:39.549Z,1.03
2018-05-07T11:33:07.071Z,1.07
2018-05-07T11:35:34.631Z,1.27
2018-05-07T11:38:02.224Z,1.03
2018-05-07T11:40:29.747Z,0.97
2018-05-07T11:42:57.322Z,1.10
2018-05-07T11:45:24.898Z,1.27
2018-05-07T11:47:52.491Z,1.20
2018-05-07T11:50:20.778Z,1.53
2018-05-07T11:52:49.176Z,1.90
2018-05-07T11:55:16.689Z,1.40
2018-05-07T11:57:44.262Z,1.30
2018-05-07T12:00:12.549Z,1.03
2018-05-07T12:02:41.036Z,1.20
2018-05-07T12:05:09.300Z,1.60
2018-05-07T12:07:37.581Z,1.10
2018-05-07T12:10:05.879Z,1.37
2018-05-07T12:12:33.392Z,1.53
2018-05-07T12:15:00.971Z,1.67
2018-05-07T12:17:29.282Z,1.70
2018-05-07T12:19:56.845Z,1.60
2018-05-07T12:22:24.377Z,1.43
2018-05-07T12:24:51.886Z,1.50
2018-05-07T12:27:19.423Z,1.70
2018-05-07T12:29:46.977Z,1.40
2018-05-07T12:32:14.532Z,1.23
2018-05-07T12:34:42.092Z,1.50
2018-05-07T12:37:09.646Z,1.60
2018-05-07T12:39:37.218Z,1.40
2018-05-07T12:42:04.774Z,2.27
2018-05-07T12:44:32.353Z,1.47
2018-05-07T12:46:59.872Z,1.47
2018-05-07T12:49:27.443Z,1.77
2018-05-07T12:51:54.991Z,1.43
2018-05-07T12:54:22.615Z,1.70
2018-05-07T12:56:50.174Z,1.60
2018-05-07T12:59:17.756Z,1.97
2018-05-07T13:01:46.053Z,1.70
2018-05-07T13:04:13.648Z,1.50
2018-05-07T13:06:41.385Z,1.60
2018-05-07T13:09:08.938Z,1.50
2018-05-07T13:11:36.574Z,1.70
2018-05-07T13:14:04.094Z,1.63
2018-05-07T13:16:31.654Z,1.60
2018-05-07T13:18:59.283Z,1.47
2018-05-07T13:21:26.829Z,1.67
2018-05-07T13:23:54.368Z,2.23
2018-05-07T13:26:22.703Z,1.90
2018-05-07T13:28:50.272Z,1.20
2018-05-07T13:31:17.831Z,1.77
2018-05-07T13:33:45.416Z,1.43
2018-05-07T13:36:13.774Z,1.50
2018-05-07T13:38:41.319Z,2.10
2018-05-07T13:41:08.829Z,1.80
2018-05-07T13:43:36.423Z,1.80
2018-05-07T13:46:04.011Z,1.67
2018-05-07T13:48:31.635Z,1.80
2018-05-07T13:50:59.273Z,1.80
2018-05-07T13:53:26.785Z,2.40
2018-05-07T13:55:54.327Z,1.87
2018-05-07T13:58:21.866Z,1.73
2018-05-07T14:00:49.464Z,1.73
2018-05-07T14:03:17.193Z,1.33
2018-05-07T14:05:44.771Z,1.77
2018-05-07T14:08:12.415Z,1.50
2018-05-07T14:10:39.961Z,2.00
2018-05-07T14:13:07.531Z,1.53
2018-05-07T14:15:35.075Z,1.37
2018-05-07T14:18:02.619Z,2.30
2018-05-07T14:20:30.932Z,2.03
2018-05-07T14:22:58.453Z,1.43
2018-05-07T14:25:26.791Z,1.70
2018-05-07T14:27:54.314Z,1.80
2018-05-07T14:30:21.910Z,1.70
2018-05-07T14:32:49.484Z,1.77
2018-05-07T14:35:17.020Z,1.57
2018-05-07T14:37:44.588Z,1.20
2018-05-07T14:40:12.154Z,1.50
2018-05-07T14:42:39.734Z,1.90
2018-05-07T14:45:08.047Z,1.70
2018-05-07T14:47:35.628Z,1.90
2018-05-07T14:50:03.181Z,1.70
2018-05-07T14:52:30.727Z,1.47
2018-05-07T14:54:58.323Z,1.60
2018-05-07T14:57:25.873Z,1.67
2018-05-07T14:59:53.511Z,1.60
2018-05-07T15:02:21.072Z,1.70
2018-05-07T15:04:48.670Z,1.40
2018-05-07T15:07:16.183Z,1.63
2018-05-07T15:09:43.701Z,1.30
2018-05-07T15:12:11.247Z,1.43
2018-05-07T15:14:38.794Z,2.00
2018-05-07T15:17:07.235Z,1.20
2018-05-07T15:19:34.834Z,1.57
2018-05-07T15:22:02.364Z,1.43
2018-05-07T15:24:41.871Z,1.90
2018-05-07T15:27:10.160Z,1.30
2018-05-07T15:29:38.490Z,1.53
2018-05-07T15:32:06.046Z,1.70
2018-05-07T15:34:33.597Z,2.07
2018-05-07T15:37:01.163Z,1.90
2018-05-07T15:39:28.727Z,1.90
2018-05-07T15:41:56.271Z,2.00
2018-05-07T15:44:23.942Z,1.33
2018-05-07T15:46:51.500Z,2.00
2018-05-07T15:49:19.189Z,1.87
2018-05-07T15:51:46.741Z,2.47
2018-05-07T15:54:15.087Z,1.47
2018-05-07T15:56:42.659Z,1.40
2018-05-07T15:59:10.246Z,1.50
2018-05-07T16:01:38.619Z,1.83
2018-05-07T16:04:06.339Z,1.50
2018-05-07T16:06:34.737Z,1.20
2018-05-07T16:09:02.355Z,1.70
2018-05-07T16:11:30.617Z,1.60
2018-05-07T16:13:58.900Z,1.23
2018-05-07T16:16:27.367Z,1.50
2018-05-07T16:18:55.833Z,1.30
2018-05-07T16:21:23.454Z,1.50
2018-05-07T16:23:50.878Z,1.57
2018-05-07T16:26:19.269Z,1.57
2018-05-07T16:28:46.884Z,2.20
2018-05-07T16:31:14.492Z,1.40
2018-05-07T16:33:42.809Z,1.33
2018-05-07T16:36:10.330Z,1.80
2018-05-07T16:38:37.889Z,1.97
2018-05-07T16:41:05.462Z,1.60
2018-05-07T16:43:33.022Z,1.50
2018-05-07T16:46:00.712Z,1.50
2018-05-07T16:48:28.372Z,1.50
2018-05-07T16:50:55.968Z,2.13
2018-05-07T16:53:24.289Z,1.30
2018-05-07T16:55:51.894Z,1.77
2018-05-07T16:58:19.498Z,1.87
2018-05-07T17:00:47.074Z,1.60
2018-05-07T17:03:14.636Z,1.73
2018-05-07T17:05:42.211Z,1.97
2018-05-07T17:08:09.782Z,1.63
2018-05-07T17:10:38.133Z,1.20
2018-05-07T17:13:05.709Z,1.70
2018-05-07T17:15:33.255Z,2.43
2018-05-07T17:18:00.906Z,1.53
2018-05-07T17:20:28.472Z,1.40
2018-05-07T17:22:56.023Z,1.90
2018-05-07T17:25:23.608Z,1.97
2018-05-07T17:27:51.176Z,1.40
2018-05-07T17:30:18.775Z,2.23
2018-05-07T17:32:46.340Z,1.60
2018-05-07T17:35:13.941Z,2.10
2018-05-07T17:37:41.523Z,2.00
2018-05-07T17:40:09.098Z,1.87
2018-05-07T17:42:37.411Z,1.80
2018-05-07T17:45:17.654Z,2.10
2018-05-07T17:47:57.109Z,2.20
2018-05-07T17:50:24.693Z,1.20
2018-05-07T17:52:52.356Z,1.17
2018-05-07T17:55:19.935Z,1.43
2018-05-07T17:57:47.482Z,2.30
2018-05-07T18:00:15.106Z,1.93
2018-05-07T18:02:42.803Z,1.93
2018-05-07T18:05:10.361Z,2.20
2018-05-07T18:07:37.923Z,1.70
2018-05-07T18:10:05.503Z,2.40
2018-05-07T18:12:33.902Z,3.43
2018-05-07T18:15:02.327Z,3.07
2018-05-07T18:17:29.945Z,3.13
2018-05-07T18:19:57.515Z,2.60
2018-05-07T18:22:25.073Z,1.90
2018-05-07T18:24:52.603Z,2.53
2018-05-07T18:27:20.171Z,2.10
2018-05-07T18:29:48.461Z,1.90
2018-05-07T18:32:16.011Z,2.33
2018-05-07T18:34:43.613Z,2.80
2018-05-07T18:37:11.166Z,3.10
2018-05-07T18:39:38.682Z,4.30
2018-05-07T18:42:07.055Z,3.43
2018-05-07T18:44:35.390Z,2.83
2018-05-07T18:47:02.923Z,2.60
2018-05-07T18:49:30.502Z,2.77
2018-05-07T18:51:58.088Z,2.50
2018-05-07T18:54:25.613Z,2.30
2018-05-07T18:56:53.208Z,2.43
2018-05-07T18:59:20.769Z,2.50
2018-05-07T19:01:48.321Z,2.13
2018-05-07T19:04:15.902Z,2.63
2018-05-07T19:06:43.550Z,2.43
2018-05-07T19:09:11.891Z,2.43
2018-05-07T19:11:39.437Z,3.17
2018-05-07T19:14:06.996Z,4.00
2018-05-07T19:16:34.543Z,2.33
2018-05-07T19:19:02.140Z,2.00
2018-05-07T19:21:29.819Z,3.00
2018-05-07T19:23:57.369Z,2.80
2018-05-07T19:26:24.932Z,2.23
2018-05-07T19:28:52.524Z,2.00
2018-05-07T19:31:20.851Z,2.10
2018-05-07T19:33:48.427Z,2.10
2018-05-07T19:36:16.057Z,2.27
2018-05-07T19:38:43.601Z,2.23
2018-05-07T19:41:11.275Z,2.37
2018-05-07T19:43:39.699Z,2.33
2018-05-07T19:46:07.989Z,2.57
2018-05-07T19:48:35.718Z,2.97
2018-05-07T19:51:03.145Z,3.17
2018-05-07T19:53:30.715Z,2.73
2018-05-07T19:55:58.228Z,2.20
2018-05-07T19:58:25.908Z,2.70
2018-05-07T20:00:54.246Z,2.50
2018-05-07T20:03:21.768Z,2.70
2018-05-07T20:05:49.396Z,2.87
2018-05-07T20:08:16.846Z,2.80
2018-05-07T20:10:44.395Z,3.13
2018-05-07T20:13:12.026Z,2.40
2018-05-07T20:15:39.714Z,3.27
2018-05-07T20:18:07.295Z,3.00
2018-05-07T20:20:35.607Z,2.77
2018-05-07T20:23:03.170Z,2.93
2018-05-07T20:25:30.722Z,3.20
2018-05-07T20:27:58.275Z,3.00
2018-05-07T20:30:25.824Z,2.67
2018-05-07T20:32:54.171Z,2.70
2018-05-07T20:35:21.772Z,3.40
2018-05-07T20:37:49.294Z,2.83
2018-05-07T20:40:16.913Z,2.57
2018-05-07T20:42:44.434Z,3.33
2018-05-07T20:45:12.755Z,2.70
2018-05-07T20:47:40.341Z,2.80
2018-05-07T20:50:07.899Z,2.67
2018-05-07T20:52:35.454Z,3.10
2018-05-07T20:55:02.967Z,2.60
2018-05-07T20:57:30.543Z,2.47
2018-05-07T20:59:58.090Z,3.30
2018-05-07T21:02:25.798Z,2.83
2018-05-07T21:04:54.827Z,2.60
2018-05-07T21:07:23.111Z,2.97
2018-05-07T21:09:50.706Z,2.97
2018-05-07T21:12:18.333Z,2.90
2018-05-07T21:14:45.942Z,2.97
2018-05-07T21:17:13.521Z,3.10
2018-05-07T21:19:41.101Z,3.10
2018-05-07T21:22:09.436Z,3.17
2018-05-07T21:24:36.981Z,3.07
2018-05-07T21:27:04.502Z,3.40
2018-05-07T21:29:32.790Z,3.10
2018-05-07T21:32:00.390Z,3.20
2018-05-07T21:34:27.955Z,2.97
2018-05-07T21:36:55.514Z,2.90
2018-05-07T21:39:23.866Z,2.90
2018-05-07T21:41:51.408Z,3.60
2018-05-07T21:44:18.929Z,3.00
2018-05-07T21:46:46.571Z,2.97
2018-05-07T21:49:14.095Z,3.07
2018-05-07T21:51:41.634Z,3.20
2018-05-07T21:54:09.182Z,2.97
2018-05-07T21:56:36.734Z,3.53
2018-05-07T21:59:05.058Z,2.97
2018-05-07T22:01:32.626Z,3.50
2018-05-07T22:04:00.205Z,3.17
2018-05-07T22:06:28.528Z,3.70
2018-05-07T22:08:56.124Z,3.73
2018-05-07T22:11:23.646Z,3.33
2018-05-07T22:13:51.227Z,4.20
2018-05-07T22:16:18.815Z,3.50
2018-05-07T22:18:47.980Z,3.27
2018-05-07T22:21:15.540Z,3.70
2018-05-07T22:23:43.107Z,3.30
2018-05-07T22:26:10.681Z,3.27
2018-05-07T22:28:38.239Z,3.30
2018-05-07T22:31:05.871Z,2.70
2018-05-07T22:33:33.435Z,3.47
2018-05-07T22:36:00.978Z,3.43
2018-05-07T22:38:28.526Z,3.30
2018-05-07T22:40:56.989Z,3.70
2018-05-07T22:43:25.286Z,3.10
2018-05-07T22:45:53.622Z,3.13
2018-05-07T22:48:21.166Z,3.53
2018-05-07T22:50:48.740Z,3.23
2018-05-07T22:53:16.282Z,3.50
2018-05-07T22:55:43.826Z,3.17
2018-05-07T22:58:11.371Z,3.47
2018-05-07T23:00:38.951Z,3.47
2018-05-07T23:03:06.527Z,3.20
2018-05-07T23:05:34.088Z,3.20
2018-05-07T23:08:01.649Z,3.90
2018-05-07T23:10:29.210Z,4.23
2018-05-07T23:12:56.793Z,3.30
2018-05-07T23:15:24.352Z,3.40
2018-05-07T23:17:51.915Z,3.30
2018-05-07T23:20:19.458Z,3.40
2018-05-07T23:22:47.006Z,3.53
2018-05-07T23:25:14.553Z,3.13
2018-05-07T23:27:42.111Z,3.30
2018-05-07T23:30:09.686Z,3.77
2018-05-07T23:32:41.237Z,3.67
2018-05-07T23:35:08.892Z,3.80
2018-05-07T23:37:36.415Z,3.30
2018-05-07T23:40:03.969Z,3.30
2018-05-07T23:42:31.515Z,3.37
2018-05-07T23:44:59.809Z,3.83
2018-05-07T23:47:27.384Z,3.13
2018-05-07T23:49:54.975Z,2.90
2018-05-07T23:52:22.552Z,3.37
2018-05-07T23:54:50.073Z,3.40
2018-05-07T23:57:17.634Z,3.70
2018-05-07T23:59:45.170Z,3.23
